Time;durP1;ratioP1;P1;durP2;ratioP2;P2;SDS_P1;SDS_P2;PMS_P1;PMS_P2;Temp;Humidity;BMP_temperature;BMP_pressure;BME280_temperature;BME280_humidity;BME280_pressure;Samples;Min_cycle;Max_cycle;Signal;HPM_P1;HPM_P2
2022/08/08 03:09:39;;;;;;;1.38;1.27;;;;;;;;;;5009766;28;20214;-86
2022/08/08 03:12:21;;;;;;;1.45;1.35;;;;;;;;;;5013023;28;20270;-86
2022/08/08 03:14:53;;;;;;;1.52;1.20;;;;;;;;;;5012903;28;20234;-85
2022/08/08 03:17:23;;;;;;;1.40;1.30;;;;;;;;;;5001262;28;20261;-85
2022/08/08 03:20:05;;;;;;;1.10;1.02;;;;;;;;;;4998592;28;20246;-86
2022/08/08 03:22:32;;;;;;;1.20;1.10;;;;;;;;;;5010564;28;20264;-86
2022/08/08 03:25:02;;;;;;;1.10;1.10;;;;;;;;;;4993283;28;20209;-85
2022/08/08 03:27:32;;;;;;;1.08;1.08;;;;;;;;;;4996015;28;20230;-85
2022/08/08 03:30:02;;;;;;;1.42;1.25;;;;;;;;;;4996942;28;20280;-85
2022/08/08 03:35:14;;;;;;;1.23;1.13;;;;;;;;;;5016518;28;20174;-85
2022/08/08 03:37:42;;;;;;;1.25;1.15;;;;;;;;;;5007880;28;20258;-86
2022/08/08 03:40:11;;;;;;;1.30;1.20;;;;;;;;;;5006530;28;20234;-86
2022/08/08 03:42:38;;;;;;;1.23;1.13;;;;;;;;;;4998629;28;20281;-86
2022/08/08 03:45:18;;;;;;;1.30;1.20;;;;;;;;;;5005749;28;20207;-86
2022/08/08 03:47:46;;;;;;;1.40;1.30;;;;;;;;;;4996339;28;20261;-84
2022/08/08 03:50:17;;;;;;;1.17;1.08;;;;;;;;;;5014619;28;20305;-86
2022/08/08 03:52:44;;;;;;;1.38;1.15;;;;;;;;;;5014268;28;20207;-85
2022/08/08 03:55:14;;;;;;;2.15;1.27;;;;;;;;;;5003686;28;20211;-86
2022/08/08 03:57:45;;;;;;;1.30;1.23;;;;;;;;;;5007521;28;20230;-86
2022/08/08 04:00:13;;;;;;;1.27;1.17;;;;;;;;;;4996540;28;20217;-85
2022/08/08 04:02:41;;;;;;;1.20;1.10;;;;;;;;;;5000186;28;20250;-84
2022/08/08 04:05:08;;;;;;;1.25;1.15;;;;;;;;;;5014946;28;20305;-85
2022/08/08 04:07:37;;;;;;;1.30;1.20;;;;;;;;;;5004291;28;20254;-86
2022/08/08 04:10:04;;;;;;;1.88;1.30;;;;;;;;;;5009443;28;20195;-85
2022/08/08 04:12:33;;;;;;;1.27;1.17;;;;;;;;;;5001021;28;20252;-86
2022/08/08 04:15:00;;;;;;;1.33;1.10;;;;;;;;;;5002945;28;20245;-85
2022/08/08 04:17:28;;;;;;;1.42;1.27;;;;;;;;;;5008994;28;20321;-86
2022/08/08 04:19:56;;;;;;;1.73;1.30;;;;;;;;;;5005785;28;20199;-86
2022/08/08 04:22:25;;;;;;;1.50;1.40;;;;;;;;;;5002813;28;20223;-85
2022/08/08 04:24:53;;;;;;;1.33;1.23;;;;;;;;;;5002372;28;20211;-85
2022/08/08 04:27:21;;;;;;;1.48;1.10;;;;;;;;;;5002721;28;20222;-85
2022/08/08 04:29:50;;;;;;;1.38;1.27;;;;;;;;;;4996130;28;20684;-85
2022/08/08 04:32:17;;;;;;;1.13;1.13;;;;;;;;;;5012346;28;20674;-85
2022/08/08 04:34:45;;;;;;;1.35;1.25;;;;;;;;;;4999948;28;20203;-86
2022/08/08 04:37:13;;;;;;;1.40;1.30;;;;;;;;;;5003473;28;20218;-85
2022/08/08 04:39:40;;;;;;;1.35;1.30;;;;;;;;;;5000467;28;20661;-84
2022/08/08 04:42:08;;;;;;;3.25;1.50;;;;;;;;;;5001798;28;20418;-84
2022/08/08 04:44:35;;;;;;;2.03;1.50;;;;;;;;;;5003785;28;20219;-86
2022/08/08 04:47:05;;;;;;;4.28;1.50;;;;;;;;;;4999330;28;20639;-85
2022/08/08 04:49:32;;;;;;;4.75;1.70;;;;;;;;;;5001488;28;20221;-87
2022/08/08 04:51:59;;;;;;;1.80;1.40;;;;;;;;;;5001212;28;20282;-87
2022/08/08 04:54:27;;;;;;;4.10;2.40;;;;;;;;;;4993890;28;20243;-85
2022/08/08 04:56:54;;;;;;;5.40;1.80;;;;;;;;;;5001885;28;20247;-87
2022/08/08 04:59:21;;;;;;;6.10;2.08;;;;;;;;;;5001698;28;20237;-89
2022/08/08 05:01:49;;;;;;;4.25;2.00;;;;;;;;;;5001649;28;20217;-85
2022/08/08 05:04:17;;;;;;;11.60;2.97;;;;;;;;;;5003677;28;20257;-87
2022/08/08 05:06:46;;;;;;;14.20;3.80;;;;;;;;;;5000012;28;20672;-89
2022/08/08 05:09:20;;;;;;;12.40;3.03;;;;;;;;;;4999088;28;20214;-87
2022/08/08 05:11:48;;;;;;;9.63;2.80;;;;;;;;;;5007291;28;20205;-89
2022/08/08 05:14:18;;;;;;;10.02;2.80;;;;;;;;;;5006576;28;20203;-87
2022/08/08 05:16:45;;;;;;;6.57;2.40;;;;;;;;;;5014180;28;20218;-88
2022/08/08 05:19:13;;;;;;;4.88;1.90;;;;;;;;;;5006330;28;20250;-87
2022/08/08 05:21:43;;;;;;;8.43;1.83;;;;;;;;;;5004174;28;20227;-92
2022/08/08 05:26:56;;;;;;;2.88;1.75;;;;;;;;;;5004455;28;20225;-91
2022/08/08 05:29:43;;;;;;;2.45;1.65;;;;;;;;;;5005528;28;20289;-89
2022/08/08 05:32:27;;;;;;;;;;;;;;;;;;;;;
2022/08/08 05:37:50;;;;;;;3.80;1.80;;;;;;;;;;5003181;28;20227;-90
2022/08/08 05:40:20;;;;;;;1.58;1.40;;;;;;;;;;4999330;28;20199;-91
2022/08/08 05:42:59;;;;;;;2.72;1.63;;;;;;;;;;5006708;28;20290;-92
2022/08/08 05:45:33;;;;;;;2.50;1.67;;;;;;;;;;5007372;28;20210;-91
2022/08/08 05:48:03;;;;;;;2.67;1.60;;;;;;;;;;5004670;28;20270;-90
2022/08/08 05:50:51;;;;;;;5.75;1.60;;;;;;;;;;5006796;28;20202;-90
2022/08/08 05:53:24;;;;;;;3.38;1.83;;;;;;;;;;5003830;28;20230;-91
2022/08/08 05:56:03;;;;;;;2.00;1.58;;;;;;;;;;4996382;28;20222;-90
2022/08/08 05:58:31;;;;;;;3.53;1.92;;;;;;;;;;4998406;28;20198;-84
2022/08/08 06:00:59;;;;;;;5.85;1.80;;;;;;;;;;5003803;28;20231;-86
2022/08/08 06:03:26;;;;;;;3.22;1.80;;;;;;;;;;4995206;28;20716;-86
2022/08/08 06:06:08;;;;;;;;;;;;;;;;;;;;;
2022/08/08 06:08:42;;;;;;;7.13;1.98;;;;;;;;;;4999544;28;20688;-89
2022/08/08 06:17:55;;;;;;;3.20;1.70;;;;;;;;;;4939932;29;20233;-92
2022/08/08 06:21:05;;;;;;;3.20;1.75;;;;;;;;;;4953031;29;20219;-92
2022/08/08 06:23:48;;;;;;;2.20;1.65;;;;;;;;;;4991589;28;20277;-92
2022/08/08 07:26:50;;;;;;;2.83;2.50;;;;;;;;;;5003957;28;20252;-90
2022/08/08 07:29:32;;;;;;;4.45;2.83;;;;;;;;;;4998415;28;20217;-89
2022/08/08 07:32:04;;;;;;;2.42;2.22;;;;;;;;;;4993825;28;20234;-90
2022/08/08 07:37:23;;;;;;;5.00;2.83;;;;;;;;;;4993943;28;20227;-88
2022/08/08 07:39:52;;;;;;;4.05;2.50;;;;;;;;;;4998467;28;20265;-87
2022/08/08 07:42:24;;;;;;;3.10;2.40;;;;;;;;;;5004643;28;20229;-87
2022/08/08 07:44:54;;;;;;;2.92;2.55;;;;;;;;;;4997452;28;20207;-87
2022/08/08 07:47:25;;;;;;;2.90;2.55;;;;;;;;;;4997547;28;20740;-87
2022/08/08 07:50:00;;;;;;;3.08;2.50;;;;;;;;;;4993303;28;20223;-86
2022/08/08 07:52:38;;;;;;;4.32;2.67;;;;;;;;;;4994516;28;20203;-87
2022/08/08 07:55:11;;;;;;;3.47;2.75;;;;;;;;;;4995543;28;20199;-87
2022/08/08 07:57:42;;;;;;;2.45;2.22;;;;;;;;;;5001696;28;20343;-87
2022/08/08 08:00:15;;;;;;;2.60;2.40;;;;;;;;;;4996957;28;20299;-88
2022/08/08 08:02:46;;;;;;;3.65;3.10;;;;;;;;;;5001597;28;20274;-88
2022/08/08 08:05:18;;;;;;;5.07;2.47;;;;;;;;;;4995974;28;20214;-88
2022/08/08 08:07:55;;;;;;;2.95;2.38;;;;;;;;;;4993941;28;20231;-88
2022/08/08 08:10:37;;;;;;;3.38;2.45;;;;;;;;;;4996008;28;20241;-87
2022/08/08 08:13:27;;;;;;;3.03;2.70;;;;;;;;;;4995420;28;20205;-88
2022/08/08 08:16:04;;;;;;;2.38;2.17;;;;;;;;;;5000185;28;20266;-86
2022/08/08 08:18:38;;;;;;;2.63;2.50;;;;;;;;;;5001567;28;20199;-87
2022/08/08 08:21:10;;;;;;;3.17;2.40;;;;;;;;;;4997936;28;20217;-87
2022/08/08 08:29:31;;;;;;;2.72;2.40;;;;;;;;;;4952031;28;20203;-89
2022/08/08 09:27:24;;;;;;;2.17;1.98;;;;;;;;;;5049577;22;20229;-92
2022/08/08 09:35:55;;;;;;;2.38;2.17;;;;;;;;;;5018216;28;20252;-91
2022/08/08 09:38:34;;;;;;;2.97;2.20;;;;;;;;;;5027105;28;20206;-91
2022/08/08 09:41:30;;;;;;;;;;;;;;;;;;;;;
2022/08/08 09:44:08;;;;;;;1.80;1.67;;;;;;;;;;5026338;28;20224;-91
2022/08/08 09:47:01;;;;;;;1.80;1.70;;;;;;;;;;5033347;28;20233;-91
2022/08/08 09:49:37;;;;;;;2.25;1.90;;;;;;;;;;5005189;28;20202;-91
2022/08/08 10:01:40;;;;;;;2.28;2.10;;;;;;;;;;4997614;28;20204;-91
2022/08/08 10:04:11;;;;;;;2.00;1.90;;;;;;;;;;5025821;28;20214;-92
2022/08/08 10:16:24;;;;;;;2.10;2.00;;;;;;;;;;4820919;29;20209;-92
2022/08/08 10:19:18;;;;;;;2.20;2.10;;;;;;;;;;4842756;29;20215;-92
2022/08/08 10:21:58;;;;;;;3.25;2.20;;;;;;;;;;4812150;29;20275;-92
2022/08/08 10:24:29;;;;;;;2.70;2.50;;;;;;;;;;4843969;29;20283;-93
2022/08/08 10:26:59;;;;;;;2.97;2.28;;;;;;;;;;4844416;29;20296;-90
2022/08/08 10:29:38;;;;;;;2.20;2.00;;;;;;;;;;4844596;29;20672;-89
2022/08/08 10:35:13;;;;;;;2.90;2.03;;;;;;;;;;4910753;29;20209;-94
2022/08/08 10:37:51;;;;;;;2.78;2.58;;;;;;;;;;4911086;29;20238;-91
2022/08/08 10:40:21;;;;;;;2.60;2.40;;;;;;;;;;4912514;29;20285;-91
2022/08/08 10:42:49;;;;;;;3.10;2.10;;;;;;;;;;4933548;28;20216;-91
2022/08/08 10:45:17;;;;;;;2.30;2.10;;;;;;;;;;4984712;28;20207;-92
2022/08/08 10:47:45;;;;;;;2.05;1.95;;;;;;;;;;4984949;28;20220;-92
2022/08/08 10:50:12;;;;;;;1.90;1.80;;;;;;;;;;4986924;28;20203;-92
2022/08/08 10:52:42;;;;;;;2.10;2.00;;;;;;;;;;4984082;28;20196;-91
2022/08/08 10:55:13;;;;;;;2.20;2.00;;;;;;;;;;4989943;28;20207;-91
2022/08/08 10:57:41;;;;;;;2.53;2.33;;;;;;;;;;4986697;28;20257;-92
2022/08/08 11:00:11;;;;;;;2.20;2.05;;;;;;;;;;4987787;28;20207;-92
2022/08/08 11:02:39;;;;;;;1.90;1.80;;;;;;;;;;4988926;28;20215;-91
2022/08/08 11:05:07;;;;;;;1.92;1.83;;;;;;;;;;4989337;28;20203;-91
2022/08/08 11:07:36;;;;;;;2.10;2.00;;;;;;;;;;4987172;28;20242;-92
2022/08/08 11:10:04;;;;;;;3.65;2.20;;;;;;;;;;4991325;28;20203;-91
2022/08/08 11:12:38;;;;;;;2.15;2.05;;;;;;;;;;4987905;28;20203;-91
2022/08/08 11:15:07;;;;;;;2.25;2.05;;;;;;;;;;4983621;28;20286;-93
2022/08/08 11:17:35;;;;;;;1.92;1.83;;;;;;;;;;4985103;28;20257;-90
2022/08/08 11:20:03;;;;;;;2.53;2.00;;;;;;;;;;4985153;28;20222;-91
2022/08/08 11:22:35;;;;;;;2.03;1.92;;;;;;;;;;4988450;28;20565;-90
2022/08/08 11:25:05;;;;;;;2.00;1.90;;;;;;;;;;4989395;28;20203;-91
2022/08/08 11:27:35;;;;;;;2.20;2.00;;;;;;;;;;4988445;28;20231;-91
2022/08/08 11:30:04;;;;;;;2.50;1.80;;;;;;;;;;5003021;28;20233;-91
2022/08/08 11:32:32;;;;;;;2.05;1.80;;;;;;;;;;4994811;28;20203;-90
2022/08/08 11:35:05;;;;;;;2.05;1.75;;;;;;;;;;4995943;28;20209;-91
2022/08/08 11:37:33;;;;;;;2.92;1.80;;;;;;;;;;4997227;28;20289;-92
2022/08/08 11:40:01;;;;;;;1.60;1.50;;;;;;;;;;4980515;28;20211;-92
2022/08/08 11:42:32;;;;;;;1.67;1.58;;;;;;;;;;4984409;28;20206;-91
2022/08/08 11:45:01;;;;;;;1.95;1.77;;;;;;;;;;4990046;28;20208;-89
2022/08/08 11:47:28;;;;;;;1.70;1.60;;;;;;;;;;4981398;28;20227;-90
2022/08/08 11:50:01;;;;;;;3.78;1.85;;;;;;;;;;4976411;28;20270;-90
2022/08/08 11:52:29;;;;;;;1.90;1.80;;;;;;;;;;4985743;28;20214;-91
2022/08/08 11:54:59;;;;;;;1.60;1.50;;;;;;;;;;4992568;28;20203;-90
2022/08/08 11:57:33;;;;;;;1.80;1.70;;;;;;;;;;4980600;28;20235;-90
2022/08/08 12:03:15;;;;;;;1.67;1.58;;;;;;;;;;4969306;28;20242;-93
2022/08/08 12:09:21;;;;;;;1.50;1.40;;;;;;;;;;4929922;29;20290;-92
2022/08/08 12:12:12;;;;;;;2.22;1.60;;;;;;;;;;4952058;29;20284;-92
2022/08/08 12:14:49;;;;;;;;;;;;;;;;;;;;;
2022/08/08 12:17:23;;;;;;;2.20;2.00;;;;;;;;;;4986773;28;20231;-93
2022/08/08 12:19:58;;;;;;;2.53;1.70;;;;;;;;;;4987931;28;20204;-91
2022/08/08 12:22:25;;;;;;;1.77;1.67;;;;;;;;;;4988792;28;20209;-91
2022/08/08 12:24:53;;;;;;;2.05;1.67;;;;;;;;;;4990964;28;20254;-92
2022/08/08 12:27:50;;;;;;;2.42;1.80;;;;;;;;;;4986809;28;20223;-91
2022/08/08 12:30:26;;;;;;;2.40;1.90;;;;;;;;;;4993800;28;20265;-88
2022/08/08 12:35:59;;;;;;;2.25;1.92;;;;;;;;;;4993450;28;20232;-90
2022/08/08 12:38:32;;;;;;;1.98;1.60;;;;;;;;;;4997026;28;20258;-92
2022/08/08 12:41:12;;;;;;;1.70;1.60;;;;;;;;;;5002624;28;20207;-91
2022/08/08 13:02:44;;;;;;;2.95;2.15;;;;;;;;;;4906782;29;20245;-89
2022/08/08 13:21:13;;;;;;;;;;;;;;;;;;;;;
2022/08/08 13:33:03;;;;;;;1.88;1.60;;;;;;;;;;4806759;29;20200;-90
2022/08/08 13:35:51;;;;;;;1.73;1.60;;;;;;;;;;4845350;29;20212;-90
2022/08/08 13:59:11;;;;;;;1.90;1.80;;;;;;;;;;5129829;22;20330;-90
2022/08/08 14:02:07;;;;;;;2.38;1.60;;;;;;;;;;5005316;28;20253;-90
2022/08/08 14:14:31;;;;;;;3.13;1.80;;;;;;;;;;4956912;28;20207;-90
2022/08/08 15:18:14;;;;;;;1.60;1.50;;;;;;;;;;5008609;28;20218;-91
2022/08/08 15:21:09;;;;;;;2.30;1.45;;;;;;;;;;4988232;28;20222;-91
2022/08/08 19:29:02;;;;;;;2.63;1.83;;;;;;;;;;5014122;28;20213;-86
2022/08/08 19:31:32;;;;;;;12.98;3.75;;;;;;;;;;5012697;28;20216;-86
2022/08/08 19:34:05;;;;;;;17.08;4.50;;;;;;;;;;5010976;28;20194;-84
2022/08/08 19:43:05;;;;;;;2.15;1.30;;;;;;;;;;5007205;28;20692;-87
2022/08/08 20:46:34;;;;;;;4.03;2.38;;;;;;;;;;4991122;28;20221;-88
2022/08/08 20:49:15;;;;;;;5.57;3.38;;;;;;;;;;4991765;28;20273;-88
2022/08/08 21:03:48;;;;;;;;;;;;;;;;;;;;;
2022/08/08 21:06:47;;;;;;;4.18;2.20;;;;;;;;;;4951773;29;20213;-88
2022/08/08 21:09:32;;;;;;;2.83;2.15;;;;;;;;;;4949185;28;20250;-88
2022/08/08 21:21:05;;;;;;;4.82;2.60;;;;;;;;;;4948164;29;20208;-88
2022/08/08 21:23:54;;;;;;;3.75;2.85;;;;;;;;;;4951372;29;20235;-88
2022/08/08 21:53:14;;;;;;;;;;;;;;;;;;;;;
2022/08/08 21:55:47;;;;;;;3.33;2.13;;;;;;;;;;4978928;28;20211;-88
2022/08/08 21:58:21;;;;;;;2.92;2.33;;;;;;;;;;4987359;28;20223;-87
2022/08/08 22:01:12;;;;;;;;;;;;;;;;;;;;;
2022/08/08 22:03:51;;;;;;;5.65;3.25;;;;;;;;;;4984992;28;20200;-87
2022/08/08 22:12:28;;;;;;;5.78;3.15;;;;;;;;;;4983445;28;20298;-88
2022/08/08 22:15:18;;;;;;;6.35;3.15;;;;;;;;;;4974222;28;20207;-88
2022/08/08 22:20:54;;;;;;;3.70;2.10;;;;;;;;;;4983562;28;20298;-87
2022/08/08 22:27:09;;;;;;;3.30;2.30;;;;;;;;;;4969605;28;20211;-87
2022/08/08 22:29:39;;;;;;;4.68;2.38;;;;;;;;;;5016319;22;20237;-87
2022/08/08 22:32:09;;;;;;;2.35;1.80;;;;;;;;;;5012638;28;20249;-89
2022/08/08 22:34:38;;;;;;;2.35;1.90;;;;;;;;;;5011883;28;20198;-88
2022/08/08 22:37:06;;;;;;;2.85;2.10;;;;;;;;;;5012778;28;20214;-89
2022/08/08 22:39:33;;;;;;;3.03;1.95;;;;;;;;;;5012572;28;20238;-88
2022/08/08 22:42:08;;;;;;;2.28;1.90;;;;;;;;;;5012678;28;20202;-88
2022/08/08 22:44:46;;;;;;;2.88;1.85;;;;;;;;;;5012321;28;20217;-89
2022/08/08 22:47:31;;;;;;;2.05;1.75;;;;;;;;;;5012078;28;20202;-88
2022/08/08 22:50:02;;;;;;;2.10;1.80;;;;;;;;;;4951644;29;20232;-89
2022/08/08 22:52:43;;;;;;;2.58;2.08;;;;;;;;;;5003659;28;20265;-89
2022/08/08 22:55:13;;;;;;;2.58;1.83;;;;;;;;;;5012367;28;20202;-89
2022/08/08 22:57:58;;;;;;;1.77;1.67;;;;;;;;;;5012991;28;20249;-89
2022/08/08 23:01:00;;;;;;;;;;;;;;;;;;;;;
2022/08/08 23:06:16;;;;;;;4.22;2.33;;;;;;;;;;5010829;28;20237;-91
2022/08/08 23:08:43;;;;;;;3.05;2.03;;;;;;;;;;5013087;28;20237;-91
2022/08/08 23:11:16;;;;;;;2.45;1.70;;;;;;;;;;5012677;28;20202;-91
2022/08/08 23:14:10;;;;;;;2.10;1.75;;;;;;;;;;5006142;28;20210;-91
2022/08/08 23:16:41;;;;;;;3.65;2.08;;;;;;;;;;5009467;28;20206;-91
2022/08/08 23:19:08;;;;;;;2.13;1.92;;;;;;;;;;5012045;28;20261;-91
2022/08/08 23:21:39;;;;;;;3.03;2.00;;;;;;;;;;5012313;28;20241;-89
2022/08/08 23:24:09;;;;;;;3.53;2.38;;;;;;;;;;5012178;28;20217;-90
2022/08/08 23:26:36;;;;;;;2.50;2.00;;;;;;;;;;5011825;28;20281;-89
2022/08/08 23:29:05;;;;;;;3.13;1.80;;;;;;;;;;5011677;28;20249;-90
2022/08/08 23:31:32;;;;;;;3.10;2.03;;;;;;;;;;5012013;28;20214;-90
2022/08/08 23:33:59;;;;;;;3.60;1.90;;;;;;;;;;5012985;28;20230;-90
2022/08/08 23:36:26;;;;;;;2.42;2.08;;;;;;;;;;5012175;28;20199;-90
2022/08/08 23:38:55;;;;;;;2.22;1.90;;;;;;;;;;5010788;28;20254;-90
2022/08/08 23:41:23;;;;;;;2.72;2.08;;;;;;;;;;5011033;28;20202;-89
2022/08/08 23:43:50;;;;;;;1.83;1.73;;;;;;;;;;5011078;28;20206;-90
2022/08/08 23:46:17;;;;;;;1.80;1.70;;;;;;;;;;5013648;28;20241;-90
2022/08/08 23:48:46;;;;;;;1.60;1.50;;;;;;;;;;5015917;28;20268;-90
2022/08/08 23:51:16;;;;;;;2.33;1.77;;;;;;;;;;5014380;28;20268;-89
2022/08/08 23:53:46;;;;;;;1.80;1.70;;;;;;;;;;5015406;28;20568;-90
2022/08/08 23:56:15;;;;;;;2.00;1.75;;;;;;;;;;5009724;28;20206;-88
2022/08/08 23:58:42;;;;;;;1.80;1.70;;;;;;;;;;5008801;28;20231;-90
